createdAt,value
2023-03-13T00:01:53.857Z,1.43
2023-03-13T00:04:20.753Z,1.40
2023-03-13T00:06:47.564Z,1.27
2023-03-13T00:09:16.363Z,1.50
2023-03-13T00:11:44.837Z,1.17
2023-03-13T00:14:12.351Z,1.47
2023-03-13T00:16:39.812Z,1.47
2023-03-13T00:19:07.979Z,1.30
2023-03-13T00:21:37.461Z,1.63
2023-03-13T00:24:05.160Z,1.07
2023-03-13T00:26:31.934Z,1.53
2023-03-13T00:28:59.143Z,1.63
2023-03-13T00:31:32.478Z,1.60
2023-03-13T00:34:03.729Z,1.33
2023-03-13T00:36:33.256Z,1.60
2023-03-13T00:39:00.265Z,1.30
2023-03-13T00:41:29.585Z,1.40
2023-03-13T00:43:56.551Z,1.30
2023-03-13T00:46:26.329Z,1.53
2023-03-13T00:48:53.417Z,1.43
2023-03-13T00:51:21.362Z,1.40
2023-03-13T00:53:48.277Z,1.17
2023-03-13T00:56:16.809Z,1.83
2023-03-13T00:58:44.981Z,1.30
2023-03-13T01:01:19.781Z,1.33
2023-03-13T01:03:53.311Z,1.20
2023-03-13T01:06:23.057Z,1.43
2023-03-13T01:08:50.658Z,1.30
2023-03-13T01:11:20.720Z,1.10
2023-03-13T01:13:48.523Z,1.53
2023-03-13T01:16:17.110Z,1.30
2023-03-13T01:18:46.145Z,1.60
2023-03-13T01:21:14.110Z,2.10
2023-03-13T01:23:59.797Z,1.30
2023-03-13T01:26:27.172Z,1.37
2023-03-13T01:28:55.069Z,1.60
2023-03-13T01:31:23.098Z,1.30
2023-03-13T01:33:53.662Z,2.07
2023-03-13T01:36:20.465Z,2.10
2023-03-13T01:38:55.991Z,1.70
2023-03-13T01:41:23.822Z,1.93
2023-03-13T01:43:51.480Z,1.80
2023-03-13T01:46:21.394Z,1.17
2023-03-13T01:49:09.483Z,1.53
2023-03-13T01:51:45.601Z,1.80
2023-03-13T01:54:42.558Z,1.70
2023-03-13T01:57:33.940Z,1.87
2023-03-13T02:00:16.364Z,1.77
2023-03-13T02:02:46.923Z,1.60
2023-03-13T02:05:15.001Z,1.80
2023-03-13T02:07:50.689Z,1.40
2023-03-13T02:10:18.924Z,1.40
2023-03-13T02:12:45.929Z,1.13
2023-03-13T02:15:19.097Z,1.13
2023-03-13T02:17:47.321Z,1.40
2023-03-13T02:20:15.850Z,1.10
2023-03-13T02:23:03.201Z,1.03
2023-03-13T02:25:48.140Z,1.40
2023-03-13T02:28:21.552Z,1.47
2023-03-13T02:30:50.940Z,1.10
2023-03-13T02:33:19.437Z,1.60
2023-03-13T02:35:47.366Z,1.40
2023-03-13T02:38:19.766Z,1.50
2023-03-13T02:40:49.062Z,1.30
2023-03-13T02:43:23.023Z,1.50
2023-03-13T02:46:06.807Z,1.60
2023-03-13T02:48:42.933Z,1.43
2023-03-13T02:51:19.579Z,1.70
2023-03-13T02:53:49.068Z,1.37
2023-03-13T02:56:19.745Z,1.37
2023-03-13T02:58:50.631Z,1.60
2023-03-13T03:01:17.595Z,1.80
2023-03-13T03:03:44.538Z,1.40
2023-03-13T03:06:11.305Z,2.03
2023-03-13T03:08:41.420Z,2.23
2023-03-13T03:11:08.246Z,1.87
2023-03-13T03:13:35.054Z,1.40
2023-03-13T03:16:07.629Z,1.43
2023-03-13T03:18:35.476Z,1.67
2023-03-13T03:21:06.151Z,1.27
2023-03-13T03:23:36.915Z,1.43
2023-03-13T03:26:05.486Z,1.10
2023-03-13T03:28:32.846Z,1.60
2023-03-13T03:31:08.650Z,1.30
2023-03-13T03:33:35.748Z,1.60
2023-03-13T03:36:04.953Z,1.50
2023-03-13T03:38:31.912Z,1.50
2023-03-13T03:40:58.778Z,1.37
2023-03-13T03:43:44.144Z,1.63
2023-03-13T03:46:28.581Z,1.50
2023-03-13T03:48:55.383Z,1.50
2023-03-13T03:51:22.940Z,1.30
2023-03-13T03:53:50.015Z,1.47
2023-03-13T03:56:16.805Z,1.40
2023-03-13T03:58:43.563Z,1.17
2023-03-13T04:01:10.322Z,1.10
2023-03-13T04:03:37.083Z,0.70
2023-03-13T04:06:04.207Z,1.10
2023-03-13T04:08:30.965Z,0.87
2023-03-13T04:10:57.714Z,1.17
2023-03-13T04:13:24.459Z,1.10
2023-03-13T04:15:51.189Z,0.90
2023-03-13T04:18:17.981Z,0.80
2023-03-13T04:20:45.183Z,1.00
2023-03-13T04:23:11.860Z,0.97
2023-03-13T04:25:38.669Z,0.73
2023-03-13T04:28:05.718Z,1.23
2023-03-13T04:30:32.572Z,1.00
2023-03-13T04:32:59.437Z,1.00
2023-03-13T04:35:26.384Z,0.63
2023-03-13T04:37:53.109Z,1.20
2023-03-13T04:40:19.902Z,1.20
2023-03-13T04:42:47.088Z,0.97
2023-03-13T04:45:13.901Z,0.80
2023-03-13T04:47:40.662Z,1.20
2023-03-13T04:50:08.057Z,1.23
2023-03-13T04:52:34.925Z,1.43
2023-03-13T04:55:01.689Z,1.30
2023-03-13T04:57:28.543Z,1.00
2023-03-13T04:59:55.287Z,1.20
2023-03-13T05:02:22.256Z,0.90
2023-03-13T05:04:51.694Z,1.00
2023-03-13T05:07:19.034Z,0.90
2023-03-13T05:09:45.707Z,1.40
2023-03-13T05:12:12.500Z,1.00
2023-03-13T05:14:39.272Z,0.80
2023-03-13T05:17:08.437Z,1.27
2023-03-13T05:19:35.201Z,0.97
2023-03-13T05:22:02.097Z,0.90
2023-03-13T05:24:28.803Z,1.13
2023-03-13T05:26:55.564Z,0.97
2023-03-13T05:29:22.429Z,2.00
2023-03-13T05:31:49.248Z,0.80
2023-03-13T05:34:16.017Z,1.43
2023-03-13T05:36:42.882Z,1.10
2023-03-13T05:39:09.761Z,1.00
2023-03-13T05:41:36.552Z,0.70
2023-03-13T05:44:03.505Z,0.80
2023-03-13T05:46:30.953Z,0.90
2023-03-13T05:48:57.833Z,0.63
2023-03-13T05:51:24.620Z,0.77
2023-03-13T05:53:51.429Z,0.50
2023-03-13T05:56:18.269Z,0.50
2023-03-13T05:59:03.707Z,0.80
2023-03-13T06:01:50.818Z,0.83
2023-03-13T06:04:38.044Z,1.20
2023-03-13T06:07:05.282Z,0.67
2023-03-13T06:09:32.161Z,0.70
2023-03-13T06:11:58.950Z,0.80
2023-03-13T06:14:25.692Z,0.80
2023-03-13T06:16:54.981Z,0.50
2023-03-13T06:19:24.374Z,0.80
2023-03-13T06:21:52.185Z,0.60
2023-03-13T06:24:19.057Z,0.40
2023-03-13T06:26:49.655Z,0.53
2023-03-13T06:29:17.347Z,0.60
2023-03-13T06:31:44.126Z,0.60
2023-03-13T06:34:14.226Z,0.70
2023-03-13T06:36:41.136Z,0.60
2023-03-13T06:39:10.204Z,1.20
2023-03-13T06:41:37.381Z,1.20
2023-03-13T06:44:05.197Z,0.80
2023-03-13T06:46:32.273Z,0.37
2023-03-13T06:48:59.436Z,0.53
2023-03-13T06:51:26.579Z,0.50
2023-03-13T06:53:53.602Z,1.03
2023-03-13T06:56:21.723Z,0.47
2023-03-13T06:58:49.227Z,0.60
2023-03-13T07:01:17.846Z,0.50
2023-03-13T07:03:44.824Z,0.60
2023-03-13T07:06:12.671Z,0.53
2023-03-13T07:08:39.828Z,0.40
2023-03-13T07:11:09.536Z,0.60
2023-03-13T07:13:37.043Z,0.40
2023-03-13T07:16:12.026Z,0.67
2023-03-13T07:18:41.701Z,0.60
2023-03-13T07:21:10.844Z,0.50
2023-03-13T07:23:37.584Z,0.60
2023-03-13T07:26:12.018Z,0.67
2023-03-13T07:28:38.975Z,0.50
2023-03-13T07:31:10.573Z,0.60
2023-03-13T07:33:37.435Z,0.60
2023-03-13T07:36:04.772Z,0.70
2023-03-13T07:38:31.798Z,0.63
2023-03-13T07:40:59.079Z,0.90
2023-03-13T07:43:26.386Z,0.80
2023-03-13T07:45:58.628Z,1.60
2023-03-13T07:48:33.962Z,0.30
2023-03-13T07:51:01.267Z,0.60
2023-03-13T07:53:29.557Z,0.57
2023-03-13T07:56:01.462Z,0.50
2023-03-13T07:58:31.333Z,0.50
2023-03-13T08:00:58.289Z,0.43
2023-03-13T08:03:26.192Z,0.60
2023-03-13T08:06:04.905Z,0.70
2023-03-13T08:08:31.778Z,0.60
2023-03-13T08:11:03.583Z,0.67
2023-03-13T08:13:32.348Z,0.60
2023-03-13T08:16:08.036Z,0.67
2023-03-13T08:18:36.450Z,0.90
2023-03-13T08:21:12.162Z,0.50
2023-03-13T08:23:39.614Z,0.53
2023-03-13T08:26:10.616Z,0.60
2023-03-13T08:28:38.392Z,1.10
2023-03-13T08:31:12.590Z,0.50
2023-03-13T08:33:41.930Z,0.77
2023-03-13T08:36:18.675Z,0.70
2023-03-13T08:38:47.430Z,0.70
2023-03-13T08:41:19.989Z,0.70
2023-03-13T08:43:48.274Z,0.60
2023-03-13T08:46:17.246Z,0.63
2023-03-13T08:48:48.415Z,0.80
2023-03-13T08:51:15.979Z,0.90
2023-03-13T08:53:43.730Z,0.90
2023-03-13T08:56:12.582Z,0.70
2023-03-13T08:58:39.891Z,0.60
2023-03-13T09:01:09.879Z,0.60
2023-03-13T09:03:37.428Z,0.60
2023-03-13T09:06:04.643Z,0.80
2023-03-13T09:08:32.401Z,1.20
2023-03-13T09:11:01.584Z,1.10
2023-03-13T09:13:30.153Z,0.97
2023-03-13T09:16:01.108Z,0.80
2023-03-13T09:18:29.048Z,0.77
2023-03-13T09:20:56.041Z,0.63
2023-03-13T09:23:23.928Z,1.07
2023-03-13T09:25:54.015Z,0.90
2023-03-13T09:28:21.536Z,1.00
2023-03-13T09:30:50.052Z,0.90
2023-03-13T09:33:18.349Z,1.00
2023-03-13T09:35:50.808Z,1.00
2023-03-13T09:38:21.814Z,0.80
2023-03-13T09:41:04.873Z,0.80
2023-03-13T09:43:50.007Z,0.80
2023-03-13T09:46:22.763Z,0.80
2023-03-13T09:48:56.017Z,1.37
2023-03-13T09:51:35.008Z,0.63
2023-03-13T09:54:09.415Z,1.13
2023-03-13T09:57:07.040Z,1.00
2023-03-13T09:59:52.649Z,1.00
2023-03-13T10:02:30.042Z,1.00
2023-03-13T10:05:07.613Z,1.10
2023-03-13T10:07:34.504Z,1.10
2023-03-13T10:10:02.253Z,1.20
2023-03-13T10:12:36.363Z,0.80
2023-03-13T10:15:32.745Z,1.20
2023-03-13T10:18:06.716Z,1.03
2023-03-13T10:20:35.627Z,1.00
2023-03-13T10:23:09.091Z,0.97
2023-03-13T10:25:41.255Z,0.83
2023-03-13T10:28:14.205Z,1.10
2023-03-13T10:30:47.044Z,1.00
2023-03-13T10:33:25.290Z,0.90
2023-03-13T10:36:03.218Z,0.93
2023-03-13T10:38:34.288Z,1.10
2023-03-13T10:41:09.958Z,1.20
2023-03-13T10:43:51.284Z,0.80
2023-03-13T10:46:25.637Z,1.20
2023-03-13T10:48:55.730Z,1.00
2023-03-13T10:51:25.602Z,0.90
2023-03-13T10:53:52.489Z,1.10
2023-03-13T10:56:27.677Z,1.10
2023-03-13T10:58:54.806Z,0.90
2023-03-13T11:01:22.949Z,1.17
2023-03-13T11:03:52.081Z,1.20
2023-03-13T11:06:31.490Z,1.10
2023-03-13T11:09:11.870Z,1.03
2023-03-13T11:11:44.770Z,1.10
2023-03-13T11:14:20.463Z,0.97
2023-03-13T11:16:55.076Z,1.17
2023-03-13T11:19:49.449Z,0.97
2023-03-13T11:22:38.395Z,0.80
2023-03-13T11:25:28.192Z,0.97
2023-03-13T11:28:02.188Z,1.03
2023-03-13T11:30:46.810Z,1.07
2023-03-13T11:33:50.923Z,0.80
2023-03-13T11:36:34.310Z,0.93
2023-03-13T11:39:22.616Z,2.00
2023-03-13T11:41:56.465Z,1.13
2023-03-13T11:44:31.764Z,1.13
2023-03-13T11:47:26.465Z,0.80
2023-03-13T11:50:15.584Z,1.00
2023-03-13T11:53:10.805Z,1.20
2023-03-13T11:55:56.863Z,1.20
2023-03-13T11:58:38.131Z,1.10
2023-03-13T12:01:10.903Z,0.90
2023-03-13T12:03:50.188Z,0.97
2023-03-13T12:06:29.503Z,1.00
2023-03-13T12:09:06.805Z,1.03
2023-03-13T12:11:43.580Z,1.20
2023-03-13T12:14:17.410Z,0.80
2023-03-13T12:16:47.362Z,0.73
2023-03-13T12:19:22.442Z,1.23
2023-03-13T12:21:53.493Z,0.90
2023-03-13T12:24:38.108Z,1.05
2023-03-13T12:27:24.213Z,1.30
2023-03-13T12:30:37.572Z,1.10
2023-03-13T12:33:25.142Z,1.10
2023-03-13T12:36:03.000Z,1.15
2023-03-13T12:38:38.833Z,1.08
2023-03-13T12:41:13.420Z,1.63
2023-03-13T12:43:49.686Z,1.97
2023-03-13T12:46:35.718Z,1.17
2023-03-13T12:49:32.422Z,1.50
2023-03-13T12:52:20.163Z,1.17
2023-03-13T12:55:14.669Z,1.03
2023-03-13T12:58:02.703Z,0.90
2023-03-13T13:00:31.127Z,1.10
2023-03-13T13:03:10.257Z,0.93
2023-03-13T13:05:37.226Z,0.90
2023-03-13T13:08:04.635Z,0.80
2023-03-13T13:10:31.515Z,1.03
2023-03-13T13:13:17.736Z,0.97
2023-03-13T13:15:59.606Z,1.50
2023-03-13T13:18:32.288Z,1.42
2023-03-13T13:21:02.092Z,1.10
2023-03-13T13:23:39.200Z,0.93
2023-03-13T13:26:24.509Z,0.80
2023-03-13T13:28:51.400Z,0.82
2023-03-13T13:31:52.371Z,1.10
2023-03-13T13:34:28.501Z,1.02
2023-03-13T13:37:16.426Z,0.95
2023-03-13T13:39:49.980Z,1.00
2023-03-13T13:42:41.952Z,0.88
2023-03-13T13:45:16.040Z,0.98
2023-03-13T13:47:46.518Z,0.82
2023-03-13T13:50:25.347Z,1.30
2023-03-13T13:52:52.436Z,0.90
2023-03-13T13:55:22.159Z,0.60
2023-03-13T13:57:49.880Z,0.80
2023-03-13T14:00:24.167Z,0.98
2023-03-13T14:02:55.806Z,0.80
2023-03-13T14:05:33.413Z,0.52
2023-03-13T14:08:33.020Z,1.00
2023-03-13T14:11:15.017Z,0.82
2023-03-13T14:13:42.065Z,0.70
2023-03-13T14:16:25.284Z,0.80
2023-03-13T14:18:52.918Z,0.63
2023-03-13T14:21:24.475Z,0.80
2023-03-13T14:23:51.515Z,0.63
2023-03-13T14:26:27.485Z,1.10
2023-03-13T14:29:07.367Z,0.80
2023-03-13T14:31:39.473Z,1.50
2023-03-13T14:34:12.760Z,1.08
2023-03-13T14:37:01.448Z,0.90
2023-03-13T14:39:31.241Z,0.77
2023-03-13T14:42:25.581Z,0.73
2023-03-13T14:44:54.270Z,0.85
2023-03-13T14:47:32.235Z,0.40
2023-03-13T14:50:01.825Z,0.88
2023-03-13T14:52:31.203Z,0.77
2023-03-13T14:55:04.446Z,0.55
2023-03-13T14:57:32.940Z,0.55
2023-03-13T15:00:39.237Z,0.80
2023-03-13T15:03:20.026Z,0.95
2023-03-13T15:06:03.574Z,0.73
2023-03-13T15:08:30.791Z,0.55
2023-03-13T15:10:58.048Z,0.60
2023-03-13T15:13:35.841Z,0.70
2023-03-13T15:16:13.812Z,0.85
2023-03-13T15:18:40.691Z,1.60
2023-03-13T15:21:10.474Z,4.17
2023-03-13T15:23:37.191Z,0.80
2023-03-13T15:26:05.610Z,0.82
2023-03-13T15:28:32.509Z,0.80
2023-03-13T15:31:00.466Z,0.75
2023-03-13T15:33:29.916Z,0.50
2023-03-13T15:35:57.378Z,0.80
2023-03-13T15:38:27.963Z,1.00
2023-03-13T15:40:55.130Z,1.70
2023-03-13T15:43:22.769Z,0.90
2023-03-13T15:45:51.765Z,0.60
2023-03-13T15:48:24.643Z,0.73
2023-03-13T15:50:52.988Z,0.50
2023-03-13T15:53:22.229Z,0.98
2023-03-13T15:55:49.628Z,0.90
2023-03-13T15:58:17.157Z,0.67
2023-03-13T16:00:45.904Z,0.55
2023-03-13T16:03:17.827Z,1.13
2023-03-13T16:05:45.487Z,0.90
2023-03-13T16:08:23.231Z,1.20
2023-03-13T16:11:00.935Z,0.87
2023-03-13T16:13:27.708Z,0.90
2023-03-13T16:15:54.566Z,1.27
2023-03-13T16:18:23.814Z,1.20
2023-03-13T16:20:53.686Z,1.55
2023-03-13T16:23:20.486Z,0.95
2023-03-13T16:25:48.502Z,0.80
2023-03-13T16:28:16.223Z,1.10
2023-03-13T16:30:47.692Z,1.15
2023-03-13T16:33:14.544Z,1.10
2023-03-13T16:35:41.834Z,1.50
2023-03-13T16:38:11.430Z,1.17
2023-03-13T16:40:38.134Z,1.40
2023-03-13T16:43:04.891Z,1.40
2023-03-13T16:45:31.762Z,1.20
2023-03-13T16:47:58.528Z,1.20
2023-03-13T16:50:37.996Z,1.30
2023-03-13T16:53:04.761Z,1.20
2023-03-13T16:55:36.577Z,4.53
2023-03-13T16:58:04.312Z,1.70
2023-03-13T17:00:32.228Z,1.63
2023-03-13T17:02:59.483Z,4.23
2023-03-13T17:05:27.587Z,2.17
2023-03-13T17:07:54.561Z,2.80
2023-03-13T17:10:30.985Z,2.57
2023-03-13T17:12:58.087Z,6.53
2023-03-13T17:15:26.142Z,4.37
2023-03-13T17:17:54.235Z,3.60
2023-03-13T17:20:23.844Z,3.00
2023-03-13T17:22:50.632Z,4.13
2023-03-13T17:25:17.493Z,3.43
2023-03-13T17:27:46.690Z,4.20
2023-03-13T17:30:26.626Z,5.30
2023-03-13T17:32:54.090Z,3.00
2023-03-13T17:35:21.473Z,3.60
2023-03-13T17:37:48.993Z,2.10
2023-03-13T17:40:18.014Z,2.40
2023-03-13T17:42:44.974Z,3.93
2023-03-13T17:45:12.585Z,4.80
2023-03-13T17:47:40.297Z,4.33
2023-03-13T17:50:26.932Z,7.07
2023-03-13T17:52:54.749Z,3.57
2023-03-13T17:55:22.110Z,1.70
2023-03-13T17:57:49.467Z,2.07
2023-03-13T18:00:21.472Z,1.20
2023-03-13T18:02:48.316Z,1.00
2023-03-13T18:05:15.533Z,1.13
2023-03-13T18:07:44.261Z,0.90
2023-03-13T18:10:26.501Z,0.70
2023-03-13T18:12:53.730Z,1.10
2023-03-13T18:15:22.314Z,1.00
2023-03-13T18:17:49.915Z,0.90
2023-03-13T18:20:20.528Z,0.93
2023-03-13T18:22:47.525Z,1.10
2023-03-13T18:25:15.041Z,1.80
2023-03-13T18:27:41.915Z,1.50
2023-03-13T18:30:18.507Z,1.20
2023-03-13T18:32:46.392Z,1.10
2023-03-13T18:35:13.801Z,1.10
2023-03-13T18:37:42.250Z,1.00
2023-03-13T18:40:23.010Z,1.13
2023-03-13T18:42:50.650Z,1.63
2023-03-13T18:45:23.302Z,1.60
2023-03-13T18:47:50.465Z,1.30
2023-03-13T18:50:26.870Z,1.03
2023-03-13T18:52:55.958Z,1.10
2023-03-13T18:55:24.557Z,1.60
2023-03-13T18:57:51.316Z,1.53
2023-03-13T19:00:27.084Z,0.93
2023-03-13T19:02:54.002Z,1.30
2023-03-13T19:05:21.462Z,0.90
2023-03-13T19:07:48.313Z,1.70
2023-03-13T19:10:26.617Z,1.97
2023-03-13T19:12:55.161Z,1.63
2023-03-13T19:15:25.870Z,1.73
2023-03-13T19:17:54.019Z,1.93
2023-03-13T19:20:23.327Z,3.30
2023-03-13T19:22:50.230Z,3.40
2023-03-13T19:25:17.486Z,3.07
2023-03-13T19:27:45.402Z,1.97
2023-03-13T19:30:19.697Z,1.50
2023-03-13T19:32:46.747Z,2.37
2023-03-13T19:35:16.671Z,3.23
2023-03-13T19:37:43.468Z,2.30
2023-03-13T19:40:22.522Z,0.63
2023-03-13T19:42:49.344Z,1.20
2023-03-13T19:45:20.463Z,0.80
2023-03-13T19:47:47.937Z,1.30
2023-03-13T19:50:22.253Z,0.67
2023-03-13T19:52:49.344Z,0.87
2023-03-13T19:55:16.244Z,1.13
2023-03-13T19:57:43.020Z,1.00
2023-03-13T20:00:20.668Z,1.30
2023-03-13T20:02:47.660Z,1.10
2023-03-13T20:05:14.695Z,1.20
2023-03-13T20:07:41.492Z,1.00
2023-03-13T20:10:08.718Z,1.00
2023-03-13T20:12:39.281Z,0.80
2023-03-13T20:15:07.012Z,0.67
2023-03-13T20:17:33.772Z,0.57
2023-03-13T20:20:00.743Z,0.47
2023-03-13T20:22:27.644Z,0.30
2023-03-13T20:24:55.896Z,0.60
2023-03-13T20:27:22.694Z,0.30
2023-03-13T20:29:49.512Z,0.30
2023-03-13T20:32:16.512Z,0.20
2023-03-13T20:34:43.399Z,0.50
2023-03-13T20:37:10.179Z,0.50
2023-03-13T20:39:36.946Z,0.40
2023-03-13T20:42:03.955Z,0.27
2023-03-13T20:44:30.691Z,2.70
2023-03-13T20:46:57.532Z,5.90
2023-03-13T20:49:25.214Z,2.77
2023-03-13T20:51:52.053Z,0.70
2023-03-13T20:54:19.189Z,1.23
2023-03-13T20:56:45.934Z,0.90
2023-03-13T20:59:12.757Z,0.90
2023-03-13T21:01:39.699Z,0.70
2023-03-13T21:04:06.530Z,0.50
2023-03-13T21:06:33.936Z,0.70
2023-03-13T21:09:00.769Z,0.60
2023-03-13T21:11:27.631Z,0.80
2023-03-13T21:13:54.515Z,0.73
2023-03-13T21:16:21.409Z,1.50
2023-03-13T21:18:48.445Z,1.33
2023-03-13T21:21:19.471Z,1.40
2023-03-13T21:23:46.627Z,2.10
2023-03-13T21:26:14.345Z,0.50
2023-03-13T21:28:41.270Z,1.00
2023-03-13T21:31:19.267Z,0.97
2023-03-13T21:33:47.096Z,0.70
2023-03-13T21:36:17.140Z,0.93
2023-03-13T21:38:44.458Z,1.00
2023-03-13T21:41:13.863Z,0.67
2023-03-13T21:43:41.745Z,0.77
2023-03-13T21:46:10.842Z,1.00
2023-03-13T21:48:39.105Z,0.70
2023-03-13T21:51:06.724Z,1.27
2023-03-13T21:53:34.154Z,0.80
2023-03-13T21:56:01.545Z,2.80
2023-03-13T21:58:28.262Z,1.30
2023-03-13T22:00:56.178Z,0.90
2023-03-13T22:03:24.514Z,0.77
2023-03-13T22:05:51.267Z,1.00
2023-03-13T22:08:18.131Z,0.97
2023-03-13T22:10:49.485Z,0.90
2023-03-13T22:13:16.967Z,1.00
2023-03-13T22:15:46.331Z,1.07
2023-03-13T22:18:14.638Z,0.80
2023-03-13T22:20:42.223Z,0.80
2023-03-13T22:23:10.550Z,1.07
2023-03-13T22:25:42.400Z,1.00
2023-03-13T22:28:10.581Z,1.00
2023-03-13T22:30:38.706Z,1.10
2023-03-13T22:33:06.885Z,2.03
2023-03-13T22:35:37.712Z,1.80
2023-03-13T22:38:05.158Z,1.03
2023-03-13T22:40:32.446Z,1.13
2023-03-13T22:42:59.347Z,1.50
2023-03-13T22:45:26.355Z,1.30
2023-03-13T22:47:53.147Z,1.47
2023-03-13T22:50:20.894Z,1.30
2023-03-13T22:52:47.602Z,1.37
2023-03-13T22:55:14.375Z,0.97
2023-03-13T22:57:41.215Z,0.80
2023-03-13T23:00:09.052Z,0.80
2023-03-13T23:02:35.859Z,0.80
2023-03-13T23:05:02.652Z,0.70
2023-03-13T23:07:30.609Z,0.70
2023-03-13T23:09:59.430Z,0.70
2023-03-13T23:12:26.710Z,0.63
2023-03-13T23:14:54.562Z,0.73
2023-03-13T23:17:21.280Z,0.70
2023-03-13T23:19:48.090Z,0.80
2023-03-13T23:22:18.066Z,0.80
2023-03-13T23:24:45.056Z,0.80
2023-03-13T23:27:11.879Z,0.60
2023-03-13T23:29:39.003Z,0.50
2023-03-13T23:32:05.994Z,0.67
2023-03-13T23:34:34.612Z,0.60
2023-03-13T23:37:01.478Z,0.60
2023-03-13T23:39:28.204Z,0.70
2023-03-13T23:41:55.006Z,0.50
2023-03-13T23:44:21.787Z,0.70
2023-03-13T23:46:48.528Z,0.47
2023-03-13T23:49:15.855Z,0.30
2023-03-13T23:51:42.596Z,0.43
2023-03-13T23:54:09.439Z,0.33
2023-03-13T23:56:36.243Z,0.50
2023-03-13T23:59:02.970Z,0.40
